createdAt,value
2019-02-23T00:00:12.584Z,0.70
2019-02-23T00:02:40.849Z,0.80
2019-02-23T00:05:09.498Z,0.80
2019-02-23T00:07:38.065Z,0.80
2019-02-23T00:10:08.080Z,0.80
2019-02-23T00:12:36.709Z,0.80
2019-02-23T00:15:06.695Z,0.90
2019-02-23T00:17:35.261Z,0.90
2019-02-23T00:20:05.702Z,0.90
2019-02-23T00:22:34.267Z,0.90
2019-02-23T00:25:02.898Z,1.00
2019-02-23T00:27:31.534Z,1.00
2019-02-23T00:30:00.305Z,1.00
2019-02-23T00:32:28.880Z,1.00
2019-02-23T00:34:57.470Z,1.00
2019-02-23T00:37:26.054Z,1.00
2019-02-23T00:39:54.646Z,1.00
2019-02-23T00:42:23.230Z,1.00
2019-02-23T00:44:51.858Z,1.00
2019-02-23T00:47:20.424Z,1.00
2019-02-23T00:49:49.004Z,1.00
2019-02-23T00:52:17.638Z,0.90
2019-02-23T00:54:46.213Z,0.90
2019-02-23T00:57:14.783Z,1.00
2019-02-23T00:59:43.490Z,1.00
2019-02-23T01:02:12.227Z,1.10
2019-02-23T01:04:40.884Z,1.10
2019-02-23T01:07:09.598Z,1.00
2019-02-23T01:09:38.234Z,1.10
2019-02-23T01:12:06.882Z,1.20
2019-02-23T01:14:35.517Z,1.20
2019-02-23T01:17:04.229Z,1.20
2019-02-23T01:19:32.882Z,1.10
2019-02-23T01:22:01.526Z,1.10
2019-02-23T01:24:30.098Z,1.10
2019-02-23T01:26:58.782Z,1.10
2019-02-23T01:29:27.442Z,1.20
2019-02-23T01:31:56.006Z,1.10
2019-02-23T01:34:24.587Z,1.20
2019-02-23T01:36:53.221Z,1.20
2019-02-23T01:39:21.794Z,1.10
2019-02-23T01:41:50.362Z,1.10
2019-02-23T01:44:18.956Z,1.10
2019-02-23T01:46:47.574Z,1.10
2019-02-23T01:49:16.150Z,1.10
2019-02-23T01:51:44.785Z,1.10
2019-02-23T01:54:13.877Z,1.10
2019-02-23T01:56:42.438Z,1.10
2019-02-23T01:59:11.010Z,1.00
2019-02-23T02:01:40.426Z,1.10
2019-02-23T02:04:09.134Z,1.00
2019-02-23T02:06:37.838Z,1.00
2019-02-23T02:09:06.758Z,1.10
2019-02-23T02:11:35.399Z,1.00
2019-02-23T02:14:04.027Z,1.00
2019-02-23T02:16:32.866Z,1.00
2019-02-23T02:19:01.434Z,1.00
2019-02-23T02:21:30.008Z,1.10
2019-02-23T02:23:58.581Z,1.00
2019-02-23T02:26:27.151Z,1.00
2019-02-23T02:28:55.734Z,1.10
2019-02-23T02:31:24.371Z,1.00
2019-02-23T02:34:10.080Z,1.00
2019-02-23T02:36:38.709Z,1.00
2019-02-23T02:39:13.918Z,1.00
2019-02-23T02:41:42.537Z,1.00
2019-02-23T02:44:11.229Z,0.90
2019-02-23T02:46:39.820Z,1.00
2019-02-23T02:49:08.526Z,1.00
2019-02-23T02:51:37.089Z,1.00
2019-02-23T02:54:05.726Z,1.00
2019-02-23T02:56:34.381Z,0.90
2019-02-23T02:59:03.088Z,1.00
2019-02-23T03:01:31.667Z,1.00
2019-02-23T03:04:00.240Z,1.00
2019-02-23T03:06:29.026Z,1.00
2019-02-23T03:08:57.698Z,1.00
2019-02-23T03:11:26.273Z,1.00
2019-02-23T03:13:54.907Z,1.10
2019-02-23T03:16:23.479Z,1.10
2019-02-23T03:18:52.054Z,1.00
2019-02-23T03:21:20.622Z,1.00
2019-02-23T03:23:49.200Z,1.10
2019-02-23T03:26:17.762Z,1.00
2019-02-23T03:28:46.393Z,1.00
2019-02-23T03:31:14.966Z,1.00
2019-02-23T03:33:43.531Z,1.10
2019-02-23T03:36:12.107Z,1.10
2019-02-23T03:38:40.674Z,1.10
2019-02-23T03:41:09.323Z,1.10
2019-02-23T03:43:38.225Z,1.10
2019-02-23T03:46:06.874Z,1.10
2019-02-23T03:48:35.514Z,1.10
2019-02-23T03:51:04.241Z,1.10
2019-02-23T03:53:32.946Z,1.20
2019-02-23T03:56:01.678Z,1.20
2019-02-23T03:58:30.266Z,1.20
2019-02-23T04:00:58.836Z,1.20
2019-02-23T04:03:27.483Z,1.20
2019-02-23T04:05:56.050Z,1.30
2019-02-23T04:08:24.622Z,1.30
2019-02-23T04:10:53.231Z,1.30
2019-02-23T04:13:21.903Z,1.30
2019-02-23T04:15:50.473Z,1.40
2019-02-23T04:18:19.093Z,1.30
2019-02-23T04:20:47.671Z,1.30
2019-02-23T04:23:16.311Z,1.40
2019-02-23T04:25:44.886Z,1.40
2019-02-23T04:28:13.458Z,1.40
2019-02-23T04:30:42.047Z,1.40
2019-02-23T04:33:10.630Z,1.40
2019-02-23T04:35:39.213Z,1.50
2019-02-23T04:38:07.775Z,1.50
2019-02-23T04:40:36.345Z,1.50
2019-02-23T04:43:05.001Z,1.50
2019-02-23T04:45:33.574Z,1.40
2019-02-23T04:48:02.190Z,1.40
2019-02-23T04:50:30.759Z,1.50
2019-02-23T04:52:59.339Z,1.50
2019-02-23T04:55:27.980Z,1.50
2019-02-23T04:57:56.570Z,1.50
2019-02-23T05:00:25.142Z,1.50
2019-02-23T05:02:53.727Z,1.60
2019-02-23T05:05:22.307Z,1.50
2019-02-23T05:07:50.879Z,1.60
2019-02-23T05:10:19.498Z,1.60
2019-02-23T05:12:48.059Z,1.60
2019-02-23T05:15:16.654Z,1.60
2019-02-23T05:17:45.219Z,1.60
2019-02-23T05:20:13.866Z,1.60
2019-02-23T05:22:42.438Z,1.60
2019-02-23T05:25:11.223Z,1.60
2019-02-23T05:27:39.793Z,1.60
2019-02-23T05:30:11.102Z,1.60
2019-02-23T05:32:39.683Z,1.60
2019-02-23T05:35:10.898Z,1.60
2019-02-23T05:37:39.538Z,1.70
2019-02-23T05:40:10.813Z,1.70
2019-02-23T05:42:39.418Z,1.60
2019-02-23T05:45:10.055Z,1.70
2019-02-23T05:47:38.794Z,1.70
2019-02-23T05:50:10.442Z,1.70
2019-02-23T05:52:39.127Z,1.70
2019-02-23T05:55:07.898Z,1.70
2019-02-23T05:57:36.541Z,1.70
2019-02-23T06:00:11.171Z,1.70
2019-02-23T06:02:39.748Z,1.70
2019-02-23T06:05:08.458Z,1.80
2019-02-23T06:07:37.030Z,1.80
2019-02-23T06:10:08.442Z,1.80
2019-02-23T06:12:37.017Z,1.70
2019-02-23T06:15:08.918Z,1.70
2019-02-23T06:17:37.486Z,1.80
2019-02-23T06:20:07.854Z,1.90
2019-02-23T06:22:36.370Z,1.90
2019-02-23T06:25:06.984Z,1.80
2019-02-23T06:27:35.563Z,1.80
2019-02-23T06:30:06.138Z,1.80
2019-02-23T06:32:34.714Z,1.90
2019-02-23T06:35:03.294Z,1.90
2019-02-23T06:37:32.018Z,1.90
2019-02-23T06:40:00.597Z,1.90
2019-02-23T06:42:29.162Z,1.90
2019-02-23T06:44:57.746Z,1.90
2019-02-23T06:47:26.342Z,1.90
2019-02-23T06:49:54.998Z,1.90
2019-02-23T06:52:23.630Z,1.90
2019-02-23T06:54:52.210Z,1.90
2019-02-23T06:57:20.779Z,1.90
2019-02-23T06:59:49.361Z,1.90
2019-02-23T07:02:17.937Z,1.90
2019-02-23T07:04:46.515Z,2.00
2019-02-23T07:07:15.387Z,2.00
2019-02-23T07:09:43.954Z,2.00
2019-02-23T07:12:12.539Z,2.00
2019-02-23T07:14:41.178Z,2.10
2019-02-23T07:17:09.830Z,2.10
2019-02-23T07:19:38.466Z,2.10
2019-02-23T07:22:15.151Z,2.10
2019-02-23T07:24:37.268Z,2.20
2019-02-23T07:27:05.854Z,2.20
2019-02-23T07:29:34.526Z,2.20
2019-02-23T07:32:03.094Z,2.20
2019-02-23T07:34:31.677Z,2.20
2019-02-23T07:37:00.362Z,2.30
2019-02-23T07:39:28.942Z,2.30
2019-02-23T07:41:57.510Z,2.40
2019-02-23T07:44:26.101Z,2.30
2019-02-23T07:46:54.673Z,2.40
2019-02-23T07:49:23.266Z,2.40
2019-02-23T07:51:51.858Z,2.40
2019-02-23T07:54:20.446Z,2.40
2019-02-23T07:56:49.031Z,2.40
2019-02-23T07:59:17.661Z,2.50
2019-02-23T08:01:46.257Z,2.40
2019-02-23T08:04:14.810Z,2.50
2019-02-23T08:06:43.390Z,2.50
2019-02-23T08:09:12.397Z,2.50
2019-02-23T08:11:40.978Z,2.40
2019-02-23T08:14:09.551Z,2.40
2019-02-23T08:16:38.326Z,2.40
2019-02-23T08:19:06.966Z,2.50
2019-02-23T08:21:35.539Z,2.50
2019-02-23T08:24:04.191Z,2.60
2019-02-23T08:26:32.758Z,2.60
2019-02-23T08:29:01.339Z,2.70
2019-02-23T08:31:29.979Z,2.70
2019-02-23T08:33:58.553Z,2.70
2019-02-23T08:36:27.197Z,2.80
2019-02-23T08:38:55.766Z,2.90
2019-02-23T08:41:24.348Z,3.10
2019-02-23T08:43:52.916Z,3.10
2019-02-23T08:46:21.500Z,3.10
2019-02-23T08:48:50.067Z,3.20
2019-02-23T08:51:18.714Z,3.20
2019-02-23T08:53:47.287Z,3.30
2019-02-23T08:56:15.894Z,3.10
2019-02-23T08:58:44.465Z,3.10
2019-02-23T09:01:13.090Z,3.10
2019-02-23T09:03:41.677Z,3.20
2019-02-23T09:06:10.246Z,3.30
2019-02-23T09:08:38.826Z,3.20
2019-02-23T09:11:07.394Z,3.30
2019-02-23T09:13:36.001Z,3.30
2019-02-23T09:16:04.570Z,3.30
2019-02-23T09:18:33.154Z,3.30
2019-02-23T09:21:01.728Z,3.30
2019-02-23T09:23:30.301Z,3.30
2019-02-23T09:25:59.030Z,3.30
2019-02-23T09:28:27.606Z,3.50
2019-02-23T09:30:56.187Z,3.40
2019-02-23T09:33:24.755Z,3.60
2019-02-23T09:35:53.329Z,3.70
2019-02-23T09:38:22.047Z,3.80
2019-02-23T09:40:50.642Z,3.70
2019-02-23T09:43:20.751Z,3.90
2019-02-23T09:45:49.558Z,4.00
2019-02-23T09:48:18.126Z,4.00
2019-02-23T09:50:46.702Z,4.10
2019-02-23T09:53:15.270Z,3.90
2019-02-23T09:55:43.918Z,4.10
2019-02-23T09:58:12.553Z,4.20
2019-02-23T10:00:41.122Z,4.10
2019-02-23T10:03:09.702Z,4.20
2019-02-23T10:05:38.403Z,4.50
2019-02-23T10:08:07.074Z,4.60
2019-02-23T10:10:35.658Z,4.70
2019-02-23T10:13:04.289Z,4.70
2019-02-23T10:15:33.030Z,4.70
2019-02-23T10:18:01.691Z,4.60
2019-02-23T10:20:30.312Z,4.70
2019-02-23T10:22:59.070Z,4.60
2019-02-23T10:25:27.722Z,4.50
2019-02-23T10:27:56.294Z,4.50
2019-02-23T10:30:25.178Z,4.50
2019-02-23T10:32:53.742Z,4.60
2019-02-23T10:35:22.316Z,4.60
2019-02-23T10:37:50.962Z,4.40
2019-02-23T10:40:19.702Z,4.20
2019-02-23T10:42:48.304Z,4.30
2019-02-23T10:45:16.877Z,4.50
2019-02-23T10:47:45.454Z,4.40
2019-02-23T10:50:15.566Z,4.60
2019-02-23T10:52:44.191Z,4.70
2019-02-23T10:55:14.199Z,4.90
2019-02-23T10:57:42.841Z,4.90
2019-02-23T11:00:18.698Z,4.80
2019-02-23T11:02:47.438Z,4.70
2019-02-23T11:05:17.429Z,5.10
2019-02-23T11:07:46.165Z,5.20
2019-02-23T11:10:15.362Z,5.20
2019-02-23T11:12:44.074Z,5.00
2019-02-23T11:15:14.451Z,5.00
2019-02-23T11:17:43.150Z,5.20
2019-02-23T11:20:12.202Z,5.20
2019-02-23T11:22:40.954Z,5.10
2019-02-23T11:25:11.358Z,5.10
2019-02-23T11:27:40.178Z,5.50
2019-02-23T11:30:13.478Z,5.60
2019-02-23T11:32:42.054Z,5.80
2019-02-23T11:35:12.562Z,6.00
2019-02-23T11:37:41.209Z,6.00
2019-02-23T11:40:14.790Z,5.90
2019-02-23T11:42:43.672Z,5.70
2019-02-23T11:45:12.581Z,5.40
2019-02-23T11:47:41.166Z,5.50
2019-02-23T11:50:13.483Z,5.30
2019-02-23T11:52:42.050Z,5.40
2019-02-23T11:55:10.882Z,5.50
2019-02-23T11:57:39.445Z,5.60
2019-02-23T12:00:10.368Z,5.40
2019-02-23T12:02:38.938Z,5.50
2019-02-23T12:05:08.858Z,5.60
2019-02-23T12:07:37.494Z,5.70
2019-02-23T12:10:14.974Z,5.70
2019-02-23T12:12:43.611Z,5.60
2019-02-23T12:15:12.518Z,5.50
2019-02-23T12:17:41.102Z,5.70
2019-02-23T12:20:11.009Z,5.70
2019-02-23T12:22:39.586Z,5.50
2019-02-23T12:25:08.725Z,5.40
2019-02-23T12:27:37.278Z,5.30
2019-02-23T12:30:08.186Z,5.40
2019-02-23T12:32:36.878Z,5.30
2019-02-23T12:35:08.192Z,5.30
2019-02-23T12:37:36.918Z,5.20
2019-02-23T12:40:06.430Z,5.10
2019-02-23T12:42:34.999Z,5.00
2019-02-23T12:45:04.114Z,4.90
2019-02-23T12:47:32.774Z,5.10
2019-02-23T12:50:01.365Z,5.10
2019-02-23T12:52:29.955Z,5.10
2019-02-23T12:54:58.614Z,5.10
2019-02-23T12:57:27.181Z,5.10
2019-02-23T12:59:55.817Z,5.00
2019-02-23T13:02:24.397Z,5.00
2019-02-23T13:04:52.967Z,5.00
2019-02-23T13:07:21.550Z,4.90
2019-02-23T13:09:50.254Z,4.60
2019-02-23T13:12:22.074Z,4.40
2019-02-23T13:15:11.674Z,4.60
2019-02-23T13:17:55.374Z,4.60
2019-02-23T13:20:49.407Z,4.60
2019-02-23T13:23:32.886Z,4.70
2019-02-23T13:26:13.554Z,4.70
2019-02-23T13:28:50.083Z,4.70
2019-02-23T13:31:24.319Z,4.70
2019-02-23T13:34:00.109Z,4.60
2019-02-23T13:36:47.178Z,4.70
2019-02-23T13:39:35.214Z,4.60
2019-02-23T13:42:12.809Z,4.50
2019-02-23T13:45:16.161Z,4.60
2019-02-23T13:47:50.822Z,4.70
2019-02-23T13:50:25.175Z,4.80
2019-02-23T13:53:20.546Z,4.70
2019-02-23T13:56:20.864Z,4.70
2019-02-23T13:59:04.380Z,4.70
2019-02-23T14:01:41.638Z,4.70
2019-02-23T14:04:38.810Z,4.70
2019-02-23T14:07:10.454Z,4.60
2019-02-23T14:09:44.854Z,4.70
2019-02-23T14:12:31.759Z,4.70
2019-02-23T14:15:22.970Z,4.80
2019-02-23T14:17:54.628Z,4.90
2019-02-23T14:20:26.386Z,5.00
2019-02-23T14:23:03.683Z,5.20
2019-02-23T14:25:38.018Z,5.30
2019-02-23T14:28:15.193Z,5.60
2019-02-23T14:31:09.573Z,5.70
2019-02-23T14:33:47.206Z,5.70
2019-02-23T14:36:36.050Z,5.30
2019-02-23T14:39:24.206Z,5.10
2019-02-23T14:42:11.473Z,5.10
2019-02-23T14:45:18.141Z,5.10
2019-02-23T14:48:17.448Z,5.10
2019-02-23T14:50:51.749Z,5.00
2019-02-23T14:53:26.202Z,4.90
2019-02-23T14:56:09.759Z,4.90
2019-02-23T14:58:44.356Z,4.80
2019-02-23T15:01:33.570Z,4.70
2019-02-23T15:04:11.535Z,4.70
2019-02-23T15:06:48.990Z,4.60
2019-02-23T15:09:29.526Z,4.60
2019-02-23T15:12:16.245Z,4.60
2019-02-23T15:14:56.693Z,4.50
2019-02-23T15:17:45.061Z,4.50
2019-02-23T15:20:37.922Z,4.40
2019-02-23T15:23:15.458Z,4.40
2019-02-23T15:25:52.895Z,4.40
2019-02-23T15:28:36.045Z,4.30
2019-02-23T15:31:03.455Z,4.30
2019-02-23T15:33:49.826Z,4.20
2019-02-23T15:36:24.370Z,4.20
2019-02-23T15:38:58.990Z,4.10
2019-02-23T15:41:39.931Z,4.10
2019-02-23T15:44:23.608Z,4.00
2019-02-23T15:46:55.488Z,3.90
2019-02-23T15:49:31.155Z,3.80
2019-02-23T15:52:00.993Z,3.80
2019-02-23T15:54:29.686Z,3.80
2019-02-23T15:56:58.270Z,3.70
2019-02-23T15:59:27.011Z,3.60
2019-02-23T16:01:55.582Z,3.60
2019-02-23T16:04:24.169Z,3.50
2019-02-23T16:06:52.825Z,3.40
2019-02-23T16:09:21.762Z,3.40
2019-02-23T16:11:50.398Z,3.30
2019-02-23T16:14:19.125Z,3.30
2019-02-23T16:16:47.848Z,3.30
2019-02-23T16:19:16.493Z,3.30
2019-02-23T16:21:45.225Z,3.20
2019-02-23T16:24:13.913Z,3.10
2019-02-23T16:26:42.828Z,3.10
2019-02-23T16:29:11.438Z,3.00
2019-02-23T16:31:42.078Z,3.00
2019-02-23T16:34:10.712Z,2.90
2019-02-23T16:36:39.521Z,2.90
2019-02-23T16:39:10.353Z,2.80
2019-02-23T16:41:39.000Z,2.80
2019-02-23T16:44:07.575Z,2.80
2019-02-23T16:46:36.318Z,2.80
2019-02-23T16:49:05.297Z,2.90
2019-02-23T16:51:34.074Z,2.90
2019-02-23T16:54:03.614Z,2.90
2019-02-23T16:56:32.190Z,2.90
2019-02-23T16:59:00.839Z,2.90
2019-02-23T17:01:29.606Z,2.90
2019-02-23T17:03:59.619Z,2.90
2019-02-23T17:06:28.127Z,2.80
2019-02-23T17:08:56.760Z,2.80
2019-02-23T17:11:25.410Z,2.80
2019-02-23T17:13:53.981Z,2.80
2019-02-23T17:16:22.650Z,2.70
2019-02-23T17:18:51.239Z,2.70
2019-02-23T17:21:19.822Z,2.60
2019-02-23T17:23:48.391Z,2.60
2019-02-23T17:26:17.111Z,2.50
2019-02-23T17:28:45.678Z,2.50
2019-02-23T17:31:14.388Z,2.40
2019-02-23T17:33:42.945Z,2.40
2019-02-23T17:36:11.529Z,2.40
2019-02-23T17:38:40.116Z,2.30
2019-02-23T17:41:08.680Z,2.30
2019-02-23T17:43:40.116Z,2.30
2019-02-23T17:46:07.578Z,2.30
2019-02-23T17:48:36.196Z,2.30
2019-02-23T17:51:04.827Z,2.20
2019-02-23T17:53:33.398Z,2.20
2019-02-23T17:56:01.986Z,2.10
2019-02-23T17:58:31.327Z,2.00
2019-02-23T18:00:59.963Z,1.90
2019-02-23T18:03:28.542Z,1.80
2019-02-23T18:05:57.129Z,1.70
2019-02-23T18:08:25.701Z,1.60
2019-02-23T18:10:54.566Z,1.50
2019-02-23T18:13:23.222Z,1.50
2019-02-23T18:15:51.798Z,1.50
2019-02-23T18:18:20.377Z,1.50
2019-02-23T18:20:48.965Z,1.50
2019-02-23T18:23:17.545Z,1.50
2019-02-23T18:25:46.190Z,1.40
2019-02-23T18:28:14.791Z,1.50
2019-02-23T18:30:43.450Z,1.50
2019-02-23T18:33:12.034Z,1.40
2019-02-23T18:35:40.671Z,1.30
2019-02-23T18:38:09.246Z,1.10
2019-02-23T18:40:37.835Z,1.10
2019-02-23T18:43:06.552Z,1.10
2019-02-23T18:45:35.134Z,1.10
2019-02-23T18:48:03.702Z,1.10
2019-02-23T18:50:32.430Z,1.10
2019-02-23T18:53:01.161Z,1.20
2019-02-23T18:55:29.738Z,1.20
2019-02-23T18:57:58.386Z,1.30
2019-02-23T19:00:26.966Z,1.40
2019-02-23T19:02:55.551Z,1.50
2019-02-23T19:05:24.118Z,1.60
2019-02-23T19:07:52.714Z,1.70
2019-02-23T19:10:21.274Z,1.80
2019-02-23T19:12:49.854Z,1.80
2019-02-23T19:15:18.495Z,1.80
2019-02-23T19:17:47.078Z,1.90
2019-02-23T19:20:15.790Z,1.90
2019-02-23T19:22:44.562Z,1.90
2019-02-23T19:25:13.198Z,2.00
2019-02-23T19:27:41.838Z,2.00
2019-02-23T19:30:13.127Z,2.00
2019-02-23T19:32:41.852Z,2.00
2019-02-23T19:35:10.670Z,2.10
2019-02-23T19:37:39.245Z,2.00
2019-02-23T19:40:09.269Z,2.10
2019-02-23T19:42:37.940Z,2.10
2019-02-23T19:45:30.035Z,2.10
2019-02-23T19:47:58.674Z,2.10
2019-02-23T19:50:33.066Z,2.20
2019-02-23T19:53:01.640Z,2.10
2019-02-23T19:55:32.249Z,2.10
2019-02-23T19:58:00.762Z,2.10
2019-02-23T20:00:29.578Z,2.20
2019-02-23T20:02:58.172Z,2.30
2019-02-23T20:05:26.730Z,2.40
2019-02-23T20:07:55.379Z,2.40
2019-02-23T20:10:24.046Z,2.50
2019-02-23T20:12:52.858Z,2.60
2019-02-23T20:15:21.447Z,2.60
2019-02-23T20:17:49.990Z,2.70
2019-02-23T20:20:18.662Z,2.70
2019-02-23T20:22:47.293Z,2.80
2019-02-23T20:25:15.878Z,2.80
2019-02-23T20:27:44.454Z,2.90
2019-02-23T20:30:13.426Z,3.00
2019-02-23T20:32:41.997Z,3.00
2019-02-23T20:35:10.786Z,3.00
2019-02-23T20:37:39.522Z,3.00
2019-02-23T20:40:09.162Z,3.00
2019-02-23T20:42:37.819Z,3.00
2019-02-23T20:45:08.426Z,3.00
2019-02-23T20:47:37.151Z,3.00
2019-02-23T20:50:08.630Z,3.00
2019-02-23T20:52:37.214Z,3.00
2019-02-23T20:55:07.835Z,3.10
2019-02-23T20:57:36.501Z,3.10
2019-02-23T21:00:10.713Z,3.10
2019-02-23T21:02:39.662Z,3.20
2019-02-23T21:05:12.907Z,3.20
2019-02-23T21:07:41.530Z,3.20
2019-02-23T21:10:10.373Z,3.20
2019-02-23T21:12:39.018Z,3.30
2019-02-23T21:15:11.522Z,3.30
2019-02-23T21:17:40.097Z,3.30
2019-02-23T21:20:10.161Z,3.30
2019-02-23T21:22:39.635Z,3.30
2019-02-23T21:25:09.320Z,3.30
2019-02-23T21:27:37.890Z,3.40
2019-02-23T21:30:10.967Z,3.30
2019-02-23T21:32:39.610Z,3.30
2019-02-23T21:35:08.822Z,3.30
2019-02-23T21:37:37.473Z,3.30
2019-02-23T21:40:12.081Z,3.40
2019-02-23T21:42:40.614Z,3.30
2019-02-23T21:45:10.029Z,3.30
2019-02-23T21:47:38.671Z,3.30
2019-02-23T21:50:09.546Z,3.30
2019-02-23T21:52:38.317Z,3.30
2019-02-23T21:55:07.154Z,3.30
2019-02-23T21:57:35.795Z,3.30
2019-02-23T22:00:06.922Z,3.20
2019-02-23T22:02:35.646Z,3.20
2019-02-23T22:05:11.978Z,3.20
2019-02-23T22:07:35.488Z,3.30
2019-02-23T22:10:06.460Z,3.30
2019-02-23T22:12:34.984Z,3.20
2019-02-23T22:15:04.104Z,3.20
2019-02-23T22:17:32.673Z,3.20
2019-02-23T22:20:01.333Z,3.20
2019-02-23T22:22:29.986Z,3.30
2019-02-23T22:24:58.550Z,3.30
2019-02-23T22:27:31.338Z,3.30
2019-02-23T22:29:57.442Z,3.30
2019-02-23T22:32:26.114Z,3.30
2019-02-23T22:34:54.682Z,3.20
2019-02-23T22:37:23.293Z,3.20
2019-02-23T22:39:51.922Z,3.20
2019-02-23T22:42:20.592Z,3.20
2019-02-23T22:44:49.153Z,3.10
2019-02-23T22:47:17.731Z,3.10
2019-02-23T22:49:46.310Z,3.10
2019-02-23T22:52:15.199Z,3.20
2019-02-23T22:54:43.822Z,3.20
2019-02-23T22:57:12.490Z,3.20
2019-02-23T22:59:41.103Z,3.20
2019-02-23T23:02:09.897Z,3.20
2019-02-23T23:04:38.459Z,3.30
2019-02-23T23:07:07.170Z,3.30
2019-02-23T23:09:35.833Z,3.30
2019-02-23T23:12:04.482Z,3.20
2019-02-23T23:14:33.054Z,3.20
2019-02-23T23:17:01.641Z,3.10
2019-02-23T23:19:30.214Z,3.10
2019-02-23T23:21:58.799Z,3.10
2019-02-23T23:24:27.434Z,3.10
2019-02-23T23:26:56.026Z,3.00
2019-02-23T23:29:24.606Z,3.00
2019-02-23T23:31:53.249Z,3.00
2019-02-23T23:34:21.902Z,2.90
2019-02-23T23:36:50.508Z,3.00
2019-02-23T23:39:19.130Z,2.90
2019-02-23T23:41:47.785Z,2.90
2019-02-23T23:44:16.362Z,2.90
2019-02-23T23:46:45.175Z,2.90
2019-02-23T23:49:13.766Z,3.00
2019-02-23T23:51:42.418Z,2.90
2019-02-23T23:54:10.990Z,2.90
2019-02-23T23:56:39.579Z,2.90
2019-02-23T23:59:08.222Z,3.00
